createdAt,value
2019-03-12T00:00:55.643Z,99.99
2019-03-12T00:01:55.555Z,99.99
2019-03-12T00:02:55.467Z,99.99
2019-03-12T00:03:55.383Z,99.99
2019-03-12T00:04:55.294Z,99.99
2019-03-12T00:05:55.206Z,99.99
2019-03-12T00:06:55.120Z,99.99
2019-03-12T00:07:55.032Z,99.99
2019-03-12T00:08:54.944Z,99.99
2019-03-12T00:09:54.857Z,99.99
2019-03-12T00:10:54.769Z,99.99
2019-03-12T00:11:54.684Z,99.99
2019-03-12T00:12:54.594Z,99.99
2019-03-12T00:13:54.507Z,99.99
2019-03-12T00:14:54.422Z,99.99
2019-03-12T00:15:54.333Z,99.99
2019-03-12T00:16:54.245Z,99.99
2019-03-12T00:17:54.156Z,99.99
2019-03-12T00:18:54.070Z,99.99
2019-03-12T00:19:53.983Z,99.99
2019-03-12T00:20:54.145Z,99.99
2019-03-12T00:21:53.807Z,99.99
2019-03-12T00:22:53.722Z,99.99
2019-03-12T00:23:53.637Z,99.99
2019-03-12T00:24:53.547Z,99.99
2019-03-12T00:25:53.461Z,99.99
2019-03-12T00:26:53.383Z,99.99
2019-03-12T00:27:53.297Z,99.99
2019-03-12T00:28:53.212Z,99.99
2019-03-12T00:29:53.122Z,99.99
2019-03-12T00:30:53.033Z,99.99
2019-03-12T00:31:52.947Z,99.99
2019-03-12T00:32:55.620Z,99.99
2019-03-12T00:33:52.775Z,99.99
2019-03-12T00:34:52.684Z,99.99
2019-03-12T00:35:52.599Z,99.99
2019-03-12T00:36:52.525Z,99.99
2019-03-12T00:37:52.423Z,99.99
2019-03-12T00:38:52.335Z,99.99
2019-03-12T00:39:52.248Z,99.99
2019-03-12T00:40:52.160Z,99.99
2019-03-12T00:41:52.073Z,99.99
2019-03-12T00:42:51.985Z,99.99
2019-03-12T00:43:51.898Z,99.99
2019-03-12T00:44:51.810Z,99.99
2019-03-12T00:45:51.724Z,99.99
2019-03-12T00:46:51.634Z,99.99
2019-03-12T00:47:51.618Z,99.99
2019-03-12T00:48:51.473Z,99.99
2019-03-12T00:49:51.382Z,99.99
2019-03-12T00:50:51.286Z,99.99
2019-03-12T00:51:51.206Z,99.99
2019-03-12T00:52:51.111Z,99.99
2019-03-12T00:53:51.024Z,99.99
2019-03-12T00:54:50.940Z,99.99
2019-03-12T00:55:50.850Z,99.99
2019-03-12T00:56:50.773Z,99.99
2019-03-12T00:57:50.687Z,99.99
2019-03-12T00:58:50.602Z,99.99
2019-03-12T00:59:50.512Z,99.99
2019-03-12T01:00:50.426Z,99.99
2019-03-12T01:01:50.337Z,99.99
2019-03-12T01:02:50.253Z,99.99
2019-03-12T01:03:50.163Z,99.99
2019-03-12T01:04:50.076Z,99.99
2019-03-12T01:05:50.238Z,99.99
2019-03-12T01:06:49.907Z,99.99
2019-03-12T01:07:49.812Z,99.99
2019-03-12T01:08:49.726Z,99.99
2019-03-12T01:09:49.640Z,99.99
2019-03-12T01:10:49.562Z,99.99
2019-03-12T01:11:49.463Z,99.99
2019-03-12T01:12:49.376Z,99.99
2019-03-12T01:13:49.288Z,99.99
2019-03-12T01:14:49.202Z,99.99
2019-03-12T01:15:49.113Z,99.99
2019-03-12T01:16:49.027Z,99.99
2019-03-12T01:17:48.940Z,99.99
2019-03-12T01:18:48.863Z,99.99
2019-03-12T01:19:48.776Z,99.99
2019-03-12T01:20:48.690Z,99.99
2019-03-12T01:21:48.602Z,99.99
2019-03-12T01:22:48.518Z,99.99
2019-03-12T01:23:48.428Z,99.99
2019-03-12T01:24:48.341Z,99.99
2019-03-12T01:25:48.253Z,99.99
2019-03-12T01:26:48.165Z,99.99
2019-03-12T01:27:48.079Z,99.99
2019-03-12T01:28:47.993Z,99.99
2019-03-12T01:29:47.903Z,99.99
2019-03-12T01:30:47.815Z,99.99
2019-03-12T01:31:47.730Z,99.99
2019-03-12T01:32:47.640Z,99.99
2019-03-12T01:33:47.555Z,99.99
2019-03-12T01:34:47.479Z,99.99
2019-03-12T01:35:47.379Z,99.99
2019-03-12T01:36:47.291Z,99.99
2019-03-12T01:37:47.205Z,99.99
2019-03-12T01:38:47.129Z,99.99
2019-03-12T01:39:47.042Z,99.99
2019-03-12T01:40:47.258Z,99.99
2019-03-12T01:41:46.867Z,99.99
2019-03-12T01:42:46.781Z,99.99
2019-03-12T01:43:46.691Z,99.99
2019-03-12T01:44:46.604Z,99.99
2019-03-12T01:45:46.516Z,99.99
2019-03-12T01:46:46.430Z,99.99
2019-03-12T01:47:46.342Z,99.99
2019-03-12T01:48:46.255Z,99.99
2019-03-12T01:49:46.170Z,99.99
2019-03-12T01:50:46.081Z,99.99
2019-03-12T01:51:45.993Z,99.99
2019-03-12T01:52:45.907Z,99.99
2019-03-12T01:53:45.821Z,99.99
2019-03-12T01:54:45.731Z,99.99
2019-03-12T01:55:45.644Z,99.99
2019-03-12T01:56:45.559Z,99.99
2019-03-12T01:57:45.486Z,99.99
2019-03-12T01:58:45.394Z,99.99
2019-03-12T01:59:45.308Z,99.99
2019-03-12T02:00:45.221Z,99.99
2019-03-12T02:01:45.134Z,99.99
2019-03-12T02:02:45.056Z,99.99
2019-03-12T02:03:44.958Z,99.99
2019-03-12T02:04:44.869Z,99.99
2019-03-12T02:05:45.033Z,99.99
2019-03-12T02:06:44.698Z,99.99
2019-03-12T02:07:44.607Z,99.99
2019-03-12T02:08:44.520Z,99.99
2019-03-12T02:09:44.432Z,99.99
2019-03-12T02:10:44.361Z,99.99
2019-03-12T02:11:44.258Z,99.99
2019-03-12T02:12:44.171Z,99.99
2019-03-12T02:13:44.083Z,99.99
2019-03-12T02:14:43.995Z,99.99
2019-03-12T02:15:43.920Z,99.99
2019-03-12T02:16:43.822Z,99.99
2019-03-12T02:17:43.745Z,99.99
2019-03-12T02:18:43.658Z,99.99
2019-03-12T02:19:43.570Z,99.99
2019-03-12T02:20:43.485Z,99.99
2019-03-12T02:21:43.396Z,99.99
2019-03-12T02:22:43.309Z,99.99
2019-03-12T02:23:43.221Z,99.99
2019-03-12T02:24:52.079Z,99.99
2019-03-12T02:25:43.047Z,99.99
2019-03-12T02:26:43.017Z,99.99
2019-03-12T02:27:42.871Z,99.99
2019-03-12T02:28:42.785Z,99.99
2019-03-12T02:29:42.708Z,99.99
2019-03-12T02:30:42.610Z,99.99
2019-03-12T02:31:42.522Z,99.99
2019-03-12T02:32:44.435Z,99.99
2019-03-12T02:33:42.348Z,99.99
2019-03-12T02:34:42.262Z,99.99
2019-03-12T02:35:42.186Z,99.99
2019-03-12T02:36:42.120Z,99.99
2019-03-12T02:37:42.013Z,99.99
2019-03-12T02:38:41.927Z,99.99
2019-03-12T02:39:41.836Z,99.99
2019-03-12T02:40:41.999Z,99.99
2019-03-12T02:41:41.662Z,99.99
2019-03-12T02:42:41.575Z,99.99
2019-03-12T02:43:41.487Z,99.99
2019-03-12T02:44:41.406Z,99.99
2019-03-12T02:45:41.313Z,99.99
2019-03-12T02:46:41.223Z,99.99
2019-03-12T02:47:41.137Z,99.99
2019-03-12T02:48:41.056Z,99.99
2019-03-12T02:49:40.963Z,99.99
2019-03-12T02:50:41.175Z,99.99
2019-03-12T02:51:40.800Z,99.99
2019-03-12T02:52:40.701Z,99.99
2019-03-12T02:53:40.614Z,99.99
2019-03-12T02:54:40.537Z,99.99
2019-03-12T02:55:40.450Z,99.99
2019-03-12T02:56:40.364Z,99.99
2019-03-12T02:57:40.282Z,99.99
2019-03-12T02:58:40.188Z,99.99
2019-03-12T02:59:40.101Z,99.99
2019-03-12T03:00:40.024Z,99.99
2019-03-12T03:01:39.938Z,99.99
2019-03-12T03:02:39.838Z,99.99
2019-03-12T03:03:39.752Z,99.99
2019-03-12T03:04:39.664Z,99.99
2019-03-12T03:05:39.838Z,99.99
2019-03-12T03:06:39.490Z,99.99
2019-03-12T03:07:39.402Z,99.99
2019-03-12T03:08:39.320Z,99.99
2019-03-12T03:09:39.232Z,99.99
2019-03-12T03:10:39.140Z,99.99
2019-03-12T03:11:39.054Z,99.99
2019-03-12T03:12:38.991Z,99.99
2019-03-12T03:13:38.890Z,99.99
2019-03-12T03:14:38.814Z,99.99
2019-03-12T03:15:38.722Z,99.99
2019-03-12T03:16:38.629Z,99.99
2019-03-12T03:17:38.539Z,99.99
2019-03-12T03:18:38.464Z,99.99
2019-03-12T03:19:38.461Z,99.99
2019-03-12T03:20:38.287Z,99.99
2019-03-12T03:21:38.200Z,99.99
2019-03-12T03:22:38.103Z,99.99
2019-03-12T03:23:38.021Z,99.99
2019-03-12T03:24:37.929Z,99.99
2019-03-12T03:25:37.842Z,99.99
2019-03-12T03:26:37.753Z,99.99
2019-03-12T03:27:37.666Z,99.99
2019-03-12T03:28:37.592Z,99.99
2019-03-12T03:29:37.503Z,99.99
2019-03-12T03:30:37.425Z,99.99
2019-03-12T03:31:37.329Z,99.99
2019-03-12T03:32:37.246Z,99.99
2019-03-12T03:33:37.154Z,99.99
2019-03-12T03:34:37.068Z,99.99
2019-03-12T03:35:36.992Z,99.99
2019-03-12T03:36:36.897Z,99.99
2019-03-12T03:37:36.805Z,99.99
2019-03-12T03:38:36.728Z,99.99
2019-03-12T03:39:36.631Z,99.99
2019-03-12T03:40:36.543Z,99.99
2019-03-12T03:41:36.454Z,99.99
2019-03-12T03:42:36.380Z,99.99
2019-03-12T03:43:36.280Z,99.99
2019-03-12T03:44:36.194Z,99.99
2019-03-12T03:45:36.120Z,99.99
2019-03-12T03:46:36.036Z,99.99
2019-03-12T03:47:35.944Z,99.99
2019-03-12T03:48:35.857Z,99.99
2019-03-12T03:49:35.769Z,99.99
2019-03-12T03:50:35.689Z,99.99
2019-03-12T03:51:35.598Z,99.99
2019-03-12T03:52:35.508Z,99.99
2019-03-12T03:53:35.419Z,99.99
2019-03-12T03:54:35.336Z,99.99
2019-03-12T03:55:35.245Z,99.99
2019-03-12T03:56:35.170Z,99.99
2019-03-12T03:57:35.069Z,99.99
2019-03-12T03:58:34.988Z,99.99
2019-03-12T03:59:34.908Z,99.99
2019-03-12T04:00:35.070Z,99.99
2019-03-12T04:01:34.734Z,99.99
2019-03-12T04:02:34.644Z,99.99
2019-03-12T04:03:34.598Z,99.99
2019-03-12T04:04:34.476Z,99.99
2019-03-12T04:05:34.382Z,99.99
2019-03-12T04:06:34.655Z,99.99
2019-03-12T04:07:34.208Z,99.99
2019-03-12T04:08:34.121Z,99.99
2019-03-12T04:09:34.034Z,99.99
2019-03-12T04:10:33.959Z,99.99
2019-03-12T04:11:33.868Z,99.99
2019-03-12T04:12:33.797Z,99.99
2019-03-12T04:13:33.698Z,99.99
2019-03-12T04:14:33.608Z,99.99
2019-03-12T04:15:33.521Z,99.99
2019-03-12T04:16:33.434Z,99.99
2019-03-12T04:17:33.348Z,99.99
2019-03-12T04:18:33.371Z,99.99
2019-03-12T04:19:33.172Z,99.99
2019-03-12T04:20:33.098Z,99.99
2019-03-12T04:21:32.998Z,99.99
2019-03-12T04:22:32.914Z,99.99
2019-03-12T04:23:32.824Z,99.99
2019-03-12T04:24:32.736Z,99.99
2019-03-12T04:25:32.911Z,99.99
2019-03-12T04:26:32.577Z,99.99
2019-03-12T04:27:32.500Z,99.99
2019-03-12T04:28:32.406Z,99.99
2019-03-12T04:29:32.310Z,99.99
2019-03-12T04:30:32.222Z,99.99
2019-03-12T04:31:32.136Z,99.99
2019-03-12T04:32:32.048Z,99.99
2019-03-12T04:33:31.960Z,99.99
2019-03-12T04:34:31.874Z,99.99
2019-03-12T04:35:31.864Z,99.99
2019-03-12T04:36:31.707Z,99.99
2019-03-12T04:37:31.628Z,99.99
2019-03-12T04:38:31.535Z,99.99
2019-03-12T04:39:31.452Z,99.99
2019-03-12T04:40:31.361Z,99.99
2019-03-12T04:41:31.276Z,99.99
2019-03-12T04:42:31.187Z,99.99
2019-03-12T04:43:31.100Z,99.99
2019-03-12T04:44:31.012Z,99.99
2019-03-12T04:45:30.934Z,99.99
2019-03-12T04:46:30.838Z,99.99
2019-03-12T04:47:30.755Z,99.99
2019-03-12T04:48:30.662Z,99.99
2019-03-12T04:49:30.591Z,99.99
2019-03-12T04:50:30.499Z,99.99
2019-03-12T04:51:30.412Z,99.99
2019-03-12T04:52:30.335Z,99.99
2019-03-12T04:53:30.238Z,99.99
2019-03-12T04:54:30.151Z,99.99
2019-03-12T04:55:30.063Z,99.99
2019-03-12T04:56:29.978Z,99.99
2019-03-12T04:57:29.888Z,99.99
2019-03-12T04:58:29.801Z,99.99
2019-03-12T04:59:29.718Z,99.99
2019-03-12T05:00:29.639Z,99.99
2019-03-12T05:01:29.541Z,99.99
2019-03-12T05:02:29.477Z,99.99
2019-03-12T05:03:29.377Z,99.99
2019-03-12T05:04:29.288Z,99.99
2019-03-12T05:05:29.201Z,99.99
2019-03-12T05:06:29.118Z,99.99
2019-03-12T05:07:29.028Z,99.99
2019-03-12T05:08:28.941Z,99.99
2019-03-12T05:09:28.852Z,99.99
2019-03-12T05:10:28.764Z,99.99
2019-03-12T05:11:28.679Z,99.99
2019-03-12T05:12:30.645Z,99.99
2019-03-12T05:13:28.604Z,99.99
2019-03-12T05:14:28.428Z,99.99
2019-03-12T05:15:28.328Z,99.99
2019-03-12T05:16:28.240Z,99.99
2019-03-12T05:17:28.165Z,99.99
2019-03-12T05:18:28.079Z,99.99
2019-03-12T05:19:27.990Z,99.99
2019-03-12T05:20:28.204Z,99.99
2019-03-12T05:21:27.828Z,99.99
2019-03-12T05:22:27.730Z,99.99
2019-03-12T05:23:27.641Z,99.99
2019-03-12T05:24:27.556Z,99.99
2019-03-12T05:25:27.719Z,99.99
2019-03-12T05:26:27.384Z,99.99
2019-03-12T05:27:27.291Z,99.99
2019-03-12T05:28:27.204Z,99.99
2019-03-12T05:29:27.120Z,99.99
2019-03-12T05:30:27.032Z,99.99
2019-03-12T05:31:26.954Z,99.99
2019-03-12T05:32:26.866Z,99.99
2019-03-12T05:33:26.792Z,99.99
2019-03-12T05:34:26.709Z,99.99
2019-03-12T05:35:26.855Z,99.99
2019-03-12T05:36:26.517Z,99.99
2019-03-12T05:37:26.432Z,99.99
2019-03-12T05:38:26.356Z,99.99
2019-03-12T05:39:26.360Z,99.99
2019-03-12T05:40:26.168Z,99.99
2019-03-12T05:41:26.082Z,99.99
2019-03-12T05:42:25.995Z,99.99
2019-03-12T05:43:25.906Z,99.99
2019-03-12T05:44:25.818Z,99.99
2019-03-12T05:45:25.731Z,99.99
2019-03-12T05:46:25.645Z,99.99
2019-03-12T05:47:25.575Z,99.99
2019-03-12T05:48:25.482Z,99.99
2019-03-12T05:49:25.514Z,99.99
2019-03-12T05:50:25.306Z,99.99
2019-03-12T05:51:25.219Z,99.99
2019-03-12T05:52:25.136Z,99.99
2019-03-12T05:53:25.044Z,99.99
2019-03-12T05:54:24.958Z,99.99
2019-03-12T05:55:24.883Z,99.99
2019-03-12T05:56:24.782Z,99.99
2019-03-12T05:57:24.696Z,99.99
2019-03-12T05:58:24.607Z,99.99
2019-03-12T05:59:24.521Z,99.99
2019-03-12T06:00:24.434Z,99.99
2019-03-12T06:01:24.363Z,99.99
2019-03-12T06:02:24.270Z,99.99
2019-03-12T06:03:24.188Z,99.99
2019-03-12T06:04:24.098Z,99.99
2019-03-12T06:05:24.809Z,99.99
2019-03-12T06:06:23.933Z,99.99
2019-03-12T06:07:23.834Z,99.99
2019-03-12T06:08:23.746Z,99.99
2019-03-12T06:09:30.081Z,99.99
2019-03-12T06:10:23.572Z,99.99
2019-03-12T06:11:23.497Z,99.99
2019-03-12T06:12:23.399Z,99.99
2019-03-12T06:13:23.324Z,99.99
2019-03-12T06:14:23.235Z,99.99
2019-03-12T06:15:23.147Z,99.99
2019-03-12T06:16:23.062Z,99.99
2019-03-12T06:17:22.986Z,99.99
2019-03-12T06:18:22.885Z,99.99
2019-03-12T06:19:22.797Z,99.99
2019-03-12T06:20:22.713Z,99.99
2019-03-12T06:21:22.622Z,99.99
2019-03-12T06:22:22.536Z,99.99
2019-03-12T06:23:22.448Z,99.99
2019-03-12T06:24:22.361Z,99.99
2019-03-12T06:25:22.276Z,99.99
2019-03-12T06:26:22.210Z,99.99
2019-03-12T06:27:22.112Z,99.99
2019-03-12T06:28:22.043Z,99.99
2019-03-12T06:29:21.936Z,99.99
2019-03-12T06:30:21.854Z,99.99
2019-03-12T06:31:21.761Z,99.99
2019-03-12T06:32:21.673Z,99.99
2019-03-12T06:33:24.141Z,99.99
2019-03-12T06:34:21.511Z,99.99
2019-03-12T06:35:21.412Z,99.99
2019-03-12T06:36:21.325Z,99.99
2019-03-12T06:37:21.249Z,99.99
2019-03-12T06:38:21.162Z,99.99
2019-03-12T06:39:21.075Z,99.99
2019-03-12T06:40:20.989Z,99.99
2019-03-12T06:41:20.900Z,99.99
2019-03-12T06:42:20.812Z,99.99
2019-03-12T06:43:20.725Z,99.99
2019-03-12T06:44:20.638Z,99.99
2019-03-12T06:45:20.552Z,99.99
2019-03-12T06:46:20.464Z,99.99
2019-03-12T06:47:20.388Z,99.99
2019-03-12T06:48:20.302Z,99.99
2019-03-12T06:49:20.214Z,99.99
2019-03-12T06:50:20.125Z,99.99
2019-03-12T06:51:20.039Z,99.99
2019-03-12T06:52:19.951Z,99.99
2019-03-12T06:53:19.864Z,99.99
2019-03-12T06:54:19.776Z,99.99
2019-03-12T06:55:19.701Z,99.99
2019-03-12T06:56:19.616Z,99.99
2019-03-12T06:57:19.526Z,99.99
2019-03-12T06:58:19.439Z,99.99
2019-03-12T06:59:19.365Z,99.99
2019-03-12T07:00:19.265Z,99.99
2019-03-12T07:01:19.177Z,99.99
2019-03-12T07:02:19.179Z,99.99
2019-03-12T07:03:19.003Z,99.99
2019-03-12T07:04:18.926Z,99.99
2019-03-12T07:05:18.841Z,99.99
2019-03-12T07:06:18.753Z,99.99
2019-03-12T07:07:18.668Z,99.99
2019-03-12T07:08:18.629Z,99.99
2019-03-12T07:09:18.491Z,99.99
2019-03-12T07:10:18.406Z,99.99
2019-03-12T07:11:18.327Z,99.99
2019-03-12T07:12:18.241Z,99.99
2019-03-12T07:13:18.153Z,99.99
2019-03-12T07:14:18.067Z,99.99
2019-03-12T07:15:17.978Z,99.99
2019-03-12T07:16:17.895Z,99.99
2019-03-12T07:17:17.805Z,99.99
2019-03-12T07:18:17.717Z,99.99
2019-03-12T07:19:17.644Z,99.99
2019-03-12T07:20:17.554Z,99.99
2019-03-12T07:21:17.467Z,99.99
2019-03-12T07:22:17.391Z,99.99
2019-03-12T07:23:17.292Z,99.99
2019-03-12T07:24:17.204Z,99.99
2019-03-12T07:25:17.118Z,99.99
2019-03-12T07:26:17.031Z,99.99
2019-03-12T07:27:16.966Z,99.99
2019-03-12T07:28:16.870Z,99.99
2019-03-12T07:29:16.780Z,99.99
2019-03-12T07:30:16.699Z,99.99
2019-03-12T07:31:16.665Z,99.99
2019-03-12T07:32:16.519Z,99.99
2019-03-12T07:33:16.443Z,99.99
2019-03-12T07:34:18.033Z,99.99
2019-03-12T07:35:16.272Z,99.99
2019-03-12T07:36:16.180Z,99.99
2019-03-12T07:37:16.094Z,99.99
2019-03-12T07:38:16.006Z,99.99
2019-03-12T07:39:15.919Z,99.99
2019-03-12T07:40:15.831Z,99.99
2019-03-12T07:41:26.457Z,99.99
2019-03-12T07:42:15.670Z,99.99
2019-03-12T07:43:15.581Z,99.99
2019-03-12T07:44:15.602Z,99.99
2019-03-12T07:45:15.407Z,99.99
2019-03-12T07:46:15.414Z,99.99
2019-03-12T07:47:15.234Z,99.99
2019-03-12T07:48:15.169Z,99.99
2019-03-12T07:49:15.070Z,99.99
2019-03-12T07:50:14.982Z,99.99
2019-03-12T07:51:14.897Z,99.99
2019-03-12T07:52:14.810Z,99.99
2019-03-12T07:53:14.732Z,99.99
2019-03-12T07:54:14.646Z,99.99
2019-03-12T07:55:14.558Z,99.99
2019-03-12T07:56:14.471Z,99.99
2019-03-12T07:57:14.382Z,99.99
2019-03-12T07:58:14.297Z,99.99
2019-03-12T07:59:14.221Z,99.99
2019-03-12T08:00:14.133Z,99.99
2019-03-12T08:01:14.054Z,99.99
2019-03-12T08:02:13.959Z,99.99
2019-03-12T08:03:13.873Z,99.99
2019-03-12T08:04:13.784Z,99.99
2019-03-12T08:05:13.721Z,99.99
2019-03-12T08:06:13.622Z,99.99
2019-03-12T08:07:13.536Z,99.99
2019-03-12T08:08:13.448Z,99.99
2019-03-12T08:09:13.359Z,99.99
2019-03-12T08:10:13.274Z,99.99
2019-03-12T08:11:13.198Z,99.99
2019-03-12T08:12:13.110Z,99.99
2019-03-12T08:13:13.023Z,99.99
2019-03-12T08:14:12.936Z,99.99
2019-03-12T08:15:22.606Z,99.99
2019-03-12T08:16:12.762Z,99.99
2019-03-12T08:17:12.687Z,99.99
2019-03-12T08:18:12.598Z,99.99
2019-03-12T08:19:12.512Z,99.99
2019-03-12T08:20:12.423Z,99.99
2019-03-12T08:21:21.603Z,99.99
2019-03-12T08:22:12.263Z,99.99
2019-03-12T08:23:12.178Z,99.99
2019-03-12T08:24:13.754Z,99.99
2019-03-12T08:25:12.000Z,99.99
2019-03-12T08:26:11.913Z,99.99
2019-03-12T08:27:11.850Z,99.99
2019-03-12T08:28:11.754Z,99.99
2019-03-12T08:29:11.662Z,99.99
2019-03-12T08:30:11.574Z,99.99
2019-03-12T08:31:11.487Z,99.99
2019-03-12T08:32:11.400Z,99.99
2019-03-12T08:33:11.325Z,99.99
2019-03-12T08:34:11.237Z,99.99
2019-03-12T08:35:11.150Z,99.99
2019-03-12T08:36:11.075Z,99.99
2019-03-12T08:37:10.976Z,99.99
2019-03-12T08:38:10.900Z,99.99
2019-03-12T08:39:10.814Z,99.99
2019-03-12T08:40:10.727Z,99.99
2019-03-12T08:41:10.638Z,99.99
2019-03-12T08:42:10.567Z,99.99
2019-03-12T08:43:10.477Z,99.99
2019-03-12T08:44:10.391Z,99.99
2019-03-12T08:45:11.237Z,99.99
2019-03-12T08:46:10.236Z,99.99
2019-03-12T08:47:10.138Z,99.99
2019-03-12T08:48:12.708Z,99.99
2019-03-12T08:49:09.965Z,99.99
2019-03-12T08:50:09.888Z,99.99
2019-03-12T08:51:09.803Z,99.99
2019-03-12T08:52:09.727Z,99.99
2019-03-12T08:53:09.628Z,99.99
2019-03-12T08:54:09.539Z,99.99
2019-03-12T08:55:09.460Z,99.99
2019-03-12T08:56:09.378Z,99.99
2019-03-12T08:57:09.289Z,99.99
2019-03-12T08:58:09.203Z,99.99
2019-03-12T08:59:09.117Z,99.99
2019-03-12T09:00:09.040Z,99.99
2019-03-12T09:01:08.954Z,99.99
2019-03-12T09:02:08.865Z,99.99
2019-03-12T09:03:08.779Z,99.99
2019-03-12T09:04:08.703Z,99.99
2019-03-12T09:05:08.615Z,99.99
2019-03-12T09:06:08.529Z,99.99
2019-03-12T09:07:08.441Z,99.99
2019-03-12T09:08:08.359Z,99.99
2019-03-12T09:09:08.283Z,99.99
2019-03-12T09:10:08.195Z,99.99
2019-03-12T09:11:08.107Z,99.99
2019-03-12T09:12:08.016Z,99.99
2019-03-12T09:13:07.935Z,99.99
2019-03-12T09:14:07.855Z,99.99
2019-03-12T09:15:07.772Z,99.99
2019-03-12T09:16:07.680Z,99.99
2019-03-12T09:17:07.592Z,99.99
2019-03-12T09:18:07.517Z,99.99
2019-03-12T09:19:07.431Z,99.99
2019-03-12T09:20:07.342Z,99.99
2019-03-12T09:21:07.255Z,99.99
2019-03-12T09:22:07.182Z,99.99
2019-03-12T09:23:07.106Z,99.99
2019-03-12T09:24:07.006Z,99.99
2019-03-12T09:25:06.917Z,99.99
2019-03-12T09:26:06.832Z,99.99
2019-03-12T09:27:06.756Z,99.99
2019-03-12T09:28:06.668Z,99.99
2019-03-12T09:29:06.581Z,99.99
2019-03-12T09:30:06.495Z,99.99
2019-03-12T09:31:06.419Z,99.99
2019-03-12T09:32:06.333Z,99.99
2019-03-12T09:33:06.244Z,99.99
2019-03-12T09:34:06.173Z,99.99
2019-03-12T09:35:06.082Z,99.99
2019-03-12T09:36:05.998Z,99.99
2019-03-12T09:37:05.908Z,99.99
2019-03-12T09:38:05.834Z,99.99
2019-03-12T09:39:05.759Z,99.99
2019-03-12T09:40:05.681Z,99.99
2019-03-12T09:41:05.591Z,99.99
2019-03-12T09:42:05.504Z,99.99
2019-03-12T09:43:05.411Z,99.99
2019-03-12T09:44:05.335Z,99.99
2019-03-12T09:45:05.429Z,99.99
2019-03-12T09:46:05.159Z,99.99
2019-03-12T09:47:05.087Z,99.99
2019-03-12T09:48:04.995Z,99.99
2019-03-12T09:49:04.915Z,99.99
2019-03-12T09:50:04.834Z,99.99
2019-03-12T09:51:04.758Z,99.99
2019-03-12T09:52:04.670Z,99.99
2019-03-12T09:53:04.587Z,99.99
2019-03-12T09:54:04.496Z,99.99
2019-03-12T09:55:05.009Z,99.99
2019-03-12T09:56:04.335Z,99.99
2019-03-12T09:57:04.250Z,99.99
2019-03-12T09:58:04.171Z,99.99
2019-03-12T09:59:04.086Z,99.99
2019-03-12T10:00:15.697Z,99.99
2019-03-12T10:01:03.924Z,99.99
2019-03-12T10:02:03.837Z,99.99
2019-03-12T10:03:03.760Z,98.97
2019-03-12T10:04:03.721Z,98.08
2019-03-12T10:05:03.586Z,96.41
2019-03-12T10:06:03.511Z,96.94
2019-03-12T10:07:03.422Z,95.75
2019-03-12T10:08:03.347Z,94.89
2019-03-12T10:09:03.264Z,95.70
2019-03-12T10:10:03.173Z,96.84
2019-03-12T10:11:03.098Z,95.12
2019-03-12T10:12:03.013Z,94.79
2019-03-12T10:13:02.923Z,93.84
2019-03-12T10:14:02.848Z,91.89
2019-03-12T10:15:02.768Z,91.13
2019-03-12T10:16:02.678Z,92.65
2019-03-12T10:17:02.598Z,91.61
2019-03-12T10:18:02.775Z,93.51
2019-03-12T10:19:02.438Z,93.84
2019-03-12T10:20:02.349Z,93.65
2019-03-12T10:21:02.265Z,92.79
2019-03-12T10:22:02.192Z,91.03
2019-03-12T10:23:02.099Z,90.84
2019-03-12T10:24:02.013Z,90.46
2019-03-12T10:25:01.938Z,88.70
2019-03-12T10:26:01.850Z,88.13
2019-03-12T10:27:01.779Z,87.61
2019-03-12T10:28:01.689Z,86.76
2019-03-12T10:29:01.603Z,87.61
2019-03-12T10:30:01.544Z,87.80
2019-03-12T10:31:01.439Z,87.90
2019-03-12T10:32:01.363Z,87.90
2019-03-12T10:33:01.303Z,87.75
2019-03-12T10:34:01.202Z,88.51
2019-03-12T10:35:01.114Z,88.08
2019-03-12T10:36:01.046Z,87.13
2019-03-12T10:37:11.352Z,84.17
2019-03-12T10:38:00.865Z,81.95
2019-03-12T10:39:00.789Z,82.75
2019-03-12T10:40:00.701Z,85.13
2019-03-12T10:41:00.614Z,85.13
2019-03-12T10:42:00.541Z,84.70
2019-03-12T10:43:00.451Z,82.76
2019-03-12T10:44:00.376Z,83.56
2019-03-12T10:45:00.385Z,79.93
2019-03-12T10:46:00.215Z,79.03
2019-03-12T10:47:00.127Z,80.02
2019-03-12T10:48:00.039Z,79.74
2019-03-12T10:48:59.965Z,80.31
2019-03-12T10:49:59.877Z,79.44
2019-03-12T10:50:59.819Z,78.20
2019-03-12T10:51:59.715Z,76.82
2019-03-12T10:52:59.628Z,76.16
2019-03-12T10:53:59.552Z,76.79
2019-03-12T10:55:11.866Z,76.84
2019-03-12T10:55:59.391Z,78.85
2019-03-12T10:56:59.316Z,79.57
2019-03-12T10:57:59.228Z,80.27
2019-03-12T10:58:59.141Z,80.08
2019-03-12T10:59:59.066Z,80.50
2019-03-12T11:00:58.979Z,79.13
2019-03-12T11:01:58.903Z,78.31
2019-03-12T11:02:58.820Z,78.65
2019-03-12T11:03:58.742Z,78.52
2019-03-12T11:04:58.654Z,79.47
2019-03-12T11:05:58.566Z,80.13
2019-03-12T11:06:58.491Z,81.18
2019-03-12T11:07:58.404Z,81.76
2019-03-12T11:08:58.342Z,80.52
2019-03-12T11:09:58.243Z,80.99
2019-03-12T11:10:58.222Z,81.09
2019-03-12T11:11:58.135Z,81.24
2019-03-12T11:12:58.010Z,80.57
2019-03-12T11:13:57.918Z,80.57
2019-03-12T11:14:57.846Z,80.38
2019-03-12T11:15:57.759Z,81.33
2019-03-12T11:16:57.668Z,81.71
2019-03-12T11:17:57.592Z,82.61
2019-03-12T11:18:57.509Z,81.89
2019-03-12T11:19:57.431Z,80.98
2019-03-12T11:20:58.729Z,79.06
2019-03-12T11:21:57.256Z,76.44
2019-03-12T11:22:57.193Z,75.20
2019-03-12T11:23:57.094Z,75.01
2019-03-12T11:24:57.019Z,74.44
2019-03-12T11:25:56.931Z,73.43
2019-03-12T11:26:56.856Z,75.34
2019-03-12T11:27:56.773Z,75.53
2019-03-12T11:28:56.697Z,72.44
2019-03-12T11:29:56.607Z,72.53
2019-03-12T11:30:56.532Z,72.12
2019-03-12T11:31:56.446Z,71.48
2019-03-12T11:32:56.370Z,71.17
2019-03-12T11:33:56.282Z,72.27
2019-03-12T11:34:56.209Z,74.18
2019-03-12T11:35:56.156Z,74.75
2019-03-12T11:36:56.047Z,74.99
2019-03-12T11:37:55.979Z,75.85
2019-03-12T11:38:55.898Z,75.57
2019-03-12T11:39:55.796Z,75.85
2019-03-12T11:40:55.744Z,76.14
2019-03-12T11:41:55.638Z,75.85
2019-03-12T11:42:55.583Z,76.65
2019-03-12T11:43:55.472Z,77.11
2019-03-12T11:44:55.400Z,73.21
2019-03-12T11:45:55.352Z,69.96
2019-03-12T11:46:55.263Z,68.72
2019-03-12T11:47:55.162Z,67.80
2019-03-12T11:48:55.072Z,66.88
2019-03-12T11:49:54.984Z,67.23
2019-03-12T11:50:55.221Z,67.71
2019-03-12T11:51:54.823Z,65.52
2019-03-12T11:52:58.053Z,64.72
2019-03-12T11:53:54.660Z,62.46
2019-03-12T11:54:54.586Z,60.33
2019-03-12T11:55:54.513Z,59.31
2019-03-12T11:56:54.431Z,60.74
2019-03-12T11:57:54.384Z,60.74
2019-03-12T11:58:54.276Z,60.81
2019-03-12T11:59:54.362Z,63.26
2019-03-12T12:00:54.103Z,64.47
2019-03-12T12:01:54.023Z,64.47
2019-03-12T12:02:59.980Z,64.91
2019-03-12T12:03:53.862Z,66.66
2019-03-12T12:04:53.774Z,65.93
2019-03-12T12:05:53.786Z,64.15
2019-03-12T12:06:53.627Z,61.63
2019-03-12T12:07:53.714Z,62.43
2019-03-12T12:08:53.462Z,62.84
2019-03-12T12:09:53.375Z,63.48
2019-03-12T12:10:53.300Z,62.94
2019-03-12T12:11:53.225Z,64.91
2019-03-12T12:12:53.137Z,66.21
2019-03-12T12:13:53.064Z,66.21
2019-03-12T12:14:52.975Z,67.16
2019-03-12T12:15:52.901Z,67.35
2019-03-12T12:16:52.813Z,67.45
2019-03-12T12:17:52.739Z,67.55
2019-03-12T12:18:52.668Z,67.80
2019-03-12T12:19:52.575Z,68.56
2019-03-12T12:20:52.500Z,69.32
2019-03-12T12:21:52.413Z,68.75
2019-03-12T12:22:52.337Z,67.99
2019-03-12T12:23:52.262Z,67.03
2019-03-12T12:24:52.176Z,66.11
2019-03-12T12:25:52.100Z,66.24
2019-03-12T12:26:52.014Z,64.88
2019-03-12T12:27:51.926Z,62.71
2019-03-12T12:28:51.840Z,60.46
2019-03-12T12:29:51.776Z,59.94
2019-03-12T12:30:51.689Z,58.11
2019-03-12T12:31:51.601Z,58.87
2019-03-12T12:32:51.517Z,59.73
2019-03-12T12:33:51.439Z,60.30
2019-03-12T12:34:51.363Z,60.78
2019-03-12T12:35:51.288Z,60.58
2019-03-12T12:36:51.202Z,60.49
2019-03-12T12:37:51.118Z,61.38
2019-03-12T12:38:51.055Z,61.25
2019-03-12T12:39:50.953Z,61.25
2019-03-12T12:40:50.882Z,61.83
2019-03-12T12:41:50.790Z,62.30
2019-03-12T12:42:50.715Z,61.22
2019-03-12T12:43:50.628Z,61.13
2019-03-12T12:44:50.553Z,60.94
2019-03-12T12:45:50.486Z,61.60
2019-03-12T12:46:50.390Z,62.68
2019-03-12T12:47:50.315Z,64.02
2019-03-12T12:48:53.090Z,64.78
2019-03-12T12:49:50.153Z,65.51
2019-03-12T12:51:02.592Z,66.66
2019-03-12T12:51:49.995Z,66.56